Aguaray, Argentina
Current Conditions -  °F | °C
As of 6:00 PM on Monday 24 Nov 2014 (Local Time) from SLTJ Reporting Station
Few Clouds Few Clouds  
Wind Chill: 81°   Ceiling: Unl
Heat Index: 81°   Visibility: 6mi
Dew Point: 61°   Wind: 12mph
Humidity: 51%   Direction: 130°SE
Pressure: 29.85"   Gusts: NA
Location:  22.27°S, 63.73°W
Report Text: SLTJ 242100Z 13010KT 9999 FEW036 FEW040CB 27/16 Q1011
Loading
Personal Weather Stations






























Interactive Weather Map New forecast layout! Learn more

10-Day Weather Forecast

Advertisements
Track Severe Weather on mobile